Time;durP1;ratioP1;P1;durP2;ratioP2;P2;SDS_P1;SDS_P2;PMS_P1;PMS_P2;Temp;Humidity;BMP_temperature;BMP_pressure;BME280_temperature;BME280_humidity;BME280_pressure;Samples;Min_cycle;Max_cycle;Signal;HPM_P1;HPM_P2
2021/04/12 00:01:10;;;;;;;52.60;24.70;;;;;;;23.93;33.12;157432.95;1799301;79;21337;-73
2021/04/12 00:03:52;;;;;;;51.25;23.57;;;;;;;23.95;32.89;157438.27;1799116;79;22043;-73
2021/04/12 00:06:52;;;;;;;51.58;23.67;;;;;;;23.84;32.97;157410.41;1799293;79;21174;-73
2021/04/12 00:09:34;;;;;;;47.95;23.38;;;;;;;23.92;32.61;157431.59;1785253;79;21206;-73
2021/04/12 00:12:17;;;;;;;54.10;25.60;;;;;;;23.87;32.57;157417.02;1799312;79;21395;-73
2021/04/12 00:14:57;;;;;;;55.78;24.72;;;;;;;23.88;32.55;157419.67;1803349;79;22030;-73
2021/04/12 00:17:43;;;;;;;52.43;23.95;;;;;;;23.84;32.56;157409.09;1799424;79;21753;-73
2021/04/12 00:20:32;;;;;;;47.85;22.10;;;;;;;23.89;32.51;157422.33;1798289;79;21266;-72
2021/04/12 00:23:19;;;;;;;45.30;21.90;;;;;;;23.88;32.41;157421.03;1797363;79;22039;-72
2021/04/12 00:26:17;;;;;;;47.08;23.38;;;;;;;23.83;32.34;157406.44;1803556;79;21993;-71
2021/04/12 00:29:00;;;;;;;48.20;22.58;;;;;;;23.80;32.26;157398.47;1800138;79;21264;-72
2021/04/12 00:31:44;;;;;;;49.75;22.65;;;;;;;23.73;32.27;157381.19;1779337;79;21186;-72
2021/04/12 00:34:30;;;;;;;48.65;22.93;;;;;;;23.67;32.28;157362.64;1800163;79;21213;-72
2021/04/12 00:37:12;;;;;;;50.67;22.10;;;;;;;23.59;32.73;157342.75;1800222;79;21246;-72
2021/04/12 00:39:53;;;;;;;50.80;23.07;;;;;;;23.57;33.22;157336.08;1755597;79;22090;-71
2021/04/12 00:43:05;;;;;;;47.65;21.95;;;;;;;23.49;33.11;157316.25;1778521;79;21970;-72
2021/04/12 00:46:09;;;;;;;43.28;20.27;;;;;;;23.49;33.11;157316.25;1800213;79;21198;-72
2021/04/12 00:49:20;;;;;;;55.90;23.05;;;;;;;23.44;33.10;157302.97;1800218;79;21373;-72
2021/04/12 00:52:19;;;;;;;49.08;22.90;;;;;;;23.38;32.99;157287.03;1778300;79;21178;-72
2021/04/12 00:55:35;;;;;;;37.60;20.08;;;;;;;23.36;32.96;157281.78;1800164;79;21170;-72
2021/04/12 00:58:33;;;;;;;46.15;21.12;;;;;;;23.33;32.86;157273.81;1800218;79;21214;-72
2021/04/12 01:01:13;;;;;;;47.45;22.15;;;;;;;23.33;32.91;157273.81;1800188;79;21185;-72
2021/04/12 01:04:27;;;;;;;48.78;22.05;;;;;;;23.29;32.98;157261.89;1800364;79;21206;-72
2021/04/12 01:07:23;;;;;;;52.17;24.18;;;;;;;23.28;33.09;157259.23;1752188;79;21194;-72
2021/04/12 01:10:09;;;;;;;46.28;22.10;;;;;;;23.30;32.85;157265.84;1799769;79;21194;-72
2021/04/12 01:12:52;;;;;;;50.90;22.67;;;;;;;23.32;32.84;157269.86;1785895;79;21206;-72
2021/04/12 01:16:08;;;;;;;47.30;22.30;;;;;;;23.33;32.75;157273.81;1773096;79;21990;-72
2021/04/12 01:19:46;;;;;;;48.23;21.85;;;;;;;23.22;32.79;157243.31;1800121;79;21242;-72
2021/04/12 01:22:59;;;;;;;44.73;21.87;;;;;;;23.12;32.83;157218.16;1800293;79;22074;-73
2021/04/12 01:26:06;;;;;;;55.50;21.65;;;;;;;23.06;32.88;157200.94;1800391;79;21493;-72
2021/04/12 01:29:01;;;;;;;47.70;22.22;;;;;;;22.91;32.98;157162.47;1766757;79;21377;-72
2021/04/12 01:31:53;;;;;;;47.58;22.45;;;;;;;22.97;32.97;157178.34;1789465;80;21225;-72
2021/04/12 01:34:48;;;;;;;53.35;22.70;;;;;;;23.06;32.80;157200.94;1789547;80;21202;-72
2021/04/12 01:38:01;;;;;;;45.65;20.72;;;;;;;23.07;32.74;157203.59;1789541;80;21245;-72
2021/04/12 01:41:09;;;;;;;48.28;21.60;;;;;;;23.02;32.86;157191.61;1734461;82;21262;-72
2021/04/12 01:44:09;;;;;;;45.38;21.42;;;;;;;22.96;32.94;157175.69;1786932;79;22074;-72
2021/04/12 01:46:51;;;;;;;43.42;21.68;;;;;;;22.83;33.00;157139.94;1788529;80;21260;-72
2021/04/12 01:49:38;;;;;;;48.05;23.50;;;;;;;22.77;32.99;157122.70;1787247;80;21202;-72
2021/04/12 01:52:28;;;;;;;48.63;22.75;;;;;;;22.70;32.96;157105.48;1786918;80;21529;-72
2021/04/12 01:55:22;;;;;;;42.85;20.57;;;;;;;22.61;33.00;157080.30;1787652;80;21425;-72
2021/04/12 01:58:10;;;;;;;37.55;19.92;;;;;;;22.63;32.50;157086.91;1787060;80;21214;-72
2021/04/12 02:01:03;;;;;;;35.38;18.20;;;;;;;22.62;31.34;157082.95;1770263;80;21268;-71
2021/04/12 02:03:54;;;;;;;41.45;19.32;;;;;;;22.58;30.54;157073.69;1787210;80;21218;-72
2021/04/12 02:07:10;;;;;;;42.83;19.60;;;;;;;22.59;29.98;157076.34;1787172;80;22035;-72
2021/04/12 02:10:23;;;;;;;41.08;21.20;;;;;;;22.62;29.81;157084.31;1787531;80;21322;-72
2021/04/12 02:13:18;;;;;;;42.15;19.87;;;;;;;22.74;29.52;157114.75;1787076;80;21475;-72
2021/04/12 02:16:27;;;;;;;39.55;20.10;;;;;;;22.84;29.18;157143.89;1787344;80;21281;-72
2021/04/12 02:19:45;;;;;;;40.00;21.52;;;;;;;22.87;28.97;157151.84;1787742;80;21213;-72
2021/04/12 02:22:55;;;;;;;44.98;20.77;;;;;;;22.86;28.80;157149.19;1787831;80;21475;-72
2021/04/12 02:25:58;;;;;;;42.20;19.73;;;;;;;22.93;28.53;157166.42;1788408;80;21427;-72
2021/04/12 02:28:38;;;;;;;43.48;20.52;;;;;;;22.99;28.33;157182.30;1788843;80;21228;-72
2021/04/12 02:31:27;;;;;;;37.48;19.65;;;;;;;23.02;28.30;157190.27;1788558;80;21484;-72
2021/04/12 02:34:07;;;;;;;41.80;20.25;;;;;;;23.01;28.36;157188.95;1786529;80;21221;-72
2021/04/12 02:37:05;;;;;;;43.02;21.75;;;;;;;23.05;28.27;157198.28;1786770;80;21229;-71
2021/04/12 02:39:56;;;;;;;45.15;20.95;;;;;;;23.02;28.21;157191.61;1786621;80;21226;-71
2021/04/12 02:42:59;;;;;;;48.78;21.73;;;;;;;23.04;28.08;157196.88;1786447;80;22119;-71
2021/04/12 02:45:40;;;;;;;41.85;20.90;;;;;;;23.07;28.07;157203.59;1786751;80;22170;-71
2021/04/12 02:48:47;;;;;;;46.53;20.77;;;;;;;23.01;27.90;157188.95;1787302;80;21455;-72
2021/04/12 02:51:41;;;;;;;43.60;20.60;;;;;;;22.92;28.03;157163.77;1789011;80;21281;-72
2021/04/12 02:54:30;;;;;;;34.75;18.50;;;;;;;22.98;28.08;157179.66;1789415;80;21201;-72
2021/04/12 02:57:43;;;;;;;39.75;19.12;;;;;;;22.99;27.94;157183.66;1791480;80;21352;-72
2021/04/12 03:00:35;;;;;;;38.25;19.25;;;;;;;22.95;27.89;157173.03;1791562;80;21622;-72
2021/04/12 03:03:55;;;;;;;43.75;20.30;;;;;;;22.96;27.72;157175.69;1791578;80;21190;-72
2021/04/12 03:06:56;;;;;;;37.65;19.05;;;;;;;22.89;27.82;157155.81;1791754;80;21182;-72
2021/04/12 03:10:16;;;;;;;37.25;19.65;;;;;;;22.95;27.72;157173.03;1791617;80;22184;-72
2021/04/12 03:13:01;;;;;;;41.33;19.98;;;;;;;22.89;27.65;157157.16;1791397;80;21348;-71
2021/04/12 03:16:21;;;;;;;41.35;20.43;;;;;;;22.87;27.73;157151.84;1789045;79;21183;-71
2021/04/12 03:19:11;;;;;;;41.33;20.32;;;;;;;22.88;27.73;157154.50;1789699;80;21178;-71
2021/04/12 03:21:51;;;;;;;38.67;19.80;;;;;;;22.86;27.75;157149.19;1789932;80;21523;-71
2021/04/12 03:25:12;;;;;;;37.48;20.68;;;;;;;22.82;27.76;157137.28;1789562;79;21281;-71
2021/04/12 03:28:23;;;;;;;46.20;21.40;;;;;;;22.79;27.79;157129.31;1789687;80;21215;-72
2021/04/12 03:31:22;;;;;;;46.13;22.93;;;;;;;22.58;28.01;157072.34;1774530;80;21994;-72
2021/04/12 03:34:18;;;;;;;47.65;22.73;;;;;;;22.34;28.26;157010.13;1789424;80;21284;-72
2021/04/12 03:37:07;;;;;;;49.00;22.77;;;;;;;22.48;28.36;157045.86;1793514;80;21198;-73
2021/04/12 03:40:04;;;;;;;37.38;20.52;;;;;;;22.51;28.34;157053.81;1794846;80;21203;-71
2021/04/12 03:43:17;;;;;;;44.60;20.35;;;;;;;22.46;28.40;157040.55;1796700;80;21256;-73
2021/04/12 03:46:19;;;;;;;41.83;20.70;;;;;;;22.52;28.50;157057.77;1796697;80;21872;-73
2021/04/12 03:49:40;;;;;;;38.83;18.32;;;;;;;22.51;28.42;157053.81;1796488;80;21261;-76
2021/04/12 03:52:54;;;;;;;36.93;20.43;;;;;;;22.35;28.53;157012.77;1796460;80;21459;-73
2021/04/12 03:55:50;;;;;;;45.63;21.52;;;;;;;22.39;28.57;157022.03;1796363;80;21225;-76
2021/04/12 03:58:54;;;;;;;39.08;20.05;;;;;;;22.39;28.70;157022.03;1796331;80;21348;-76
2021/04/12 04:01:53;;;;;;;38.23;19.60;;;;;;;22.53;28.65;157060.42;1796311;80;21430;-76
2021/04/12 04:04:48;;;;;;;39.10;19.30;;;;;;;22.58;28.80;157072.34;1796281;80;21258;-74
2021/04/12 04:07:53;;;;;;;45.63;20.37;;;;;;;22.67;29.02;157096.22;1796301;80;21406;-73
2021/04/12 04:11:06;;;;;;;44.83;20.25;;;;;;;22.72;29.10;157109.44;1796393;80;21415;-72
2021/04/12 04:14:02;;;;;;;39.70;19.65;;;;;;;22.92;29.05;157165.08;1796225;80;21457;-80
2021/04/12 04:17:18;;;;;;;38.60;20.50;;;;;;;23.06;29.13;157202.23;1796365;80;21471;-71
2021/04/12 04:20:04;;;;;;;41.60;20.10;;;;;;;23.10;29.09;157212.84;1796242;80;22117;-73
2021/04/12 04:23:07;;;;;;;39.85;19.80;;;;;;;22.73;29.62;157112.09;1796387;80;21217;-75
2021/04/12 04:26:13;;;;;;;33.70;19.07;;;;;;;23.10;29.26;157211.50;1799226;79;22170;-72
2021/04/12 04:29:24;;;;;;;41.92;20.57;;;;;;;23.31;29.16;157267.20;1760848;79;21229;-72
2021/04/12 04:32:22;;;;;;;39.60;21.45;;;;;;;23.45;29.28;157304.27;1722562;82;21257;-72
2021/04/12 04:35:23;;;;;;;40.15;21.05;;;;;;;23.43;29.45;157300.31;1762446;78;21352;-74
2021/04/12 04:38:31;;;;;;;38.38;20.65;;;;;;;23.51;29.32;157321.50;1801315;79;21360;-72
2021/04/12 04:41:35;;;;;;;39.55;19.48;;;;;;;23.65;29.44;157357.33;1800934;79;21515;-72
2021/04/12 04:44:46;;;;;;;43.55;19.98;;;;;;;23.85;29.60;157411.70;1801052;79;21414;-76
2021/04/12 04:47:43;;;;;;;44.67;21.50;;;;;;;23.50;29.97;157318.84;1801432;79;21534;-68
2021/04/12 04:50:29;;;;;;;37.53;19.30;;;;;;;23.29;30.50;157263.19;1800001;79;21190;-67
2021/04/12 04:53:32;;;;;;;36.03;18.57;;;;;;;23.39;30.42;157289.69;1799504;79;21245;-73
2021/04/12 04:56:16;;;;;;;36.30;19.12;;;;;;;23.46;30.51;157306.92;1801875;79;21478;-72
2021/04/12 04:59:23;;;;;;;39.55;20.02;;;;;;;23.57;30.54;157337.44;1802048;79;21852;-69
2021/04/12 05:02:05;;;;;;;36.65;20.68;;;;;;;23.67;30.15;157363.94;1802003;79;21190;-77
2021/04/12 05:05:35;;;;;;;41.28;20.35;;;;;;;23.83;29.90;157406.44;1802275;79;21376;-75
2021/04/12 05:08:38;;;;;;;39.63;19.73;;;;;;;23.95;29.80;157439.56;1801823;79;21206;-72
2021/04/12 05:12:02;;;;;;;38.58;19.57;;;;;;;24.13;29.74;157485.98;1790414;79;21197;-74
2021/04/12 05:15:03;;;;;;;41.28;21.80;;;;;;;24.26;29.78;157521.78;1802057;79;21210;-69
2021/04/12 05:18:35;;;;;;;38.65;20.68;;;;;;;24.48;29.76;157578.87;1802030;79;21202;-71
2021/04/12 05:21:37;;;;;;;37.45;19.75;;;;;;;24.63;29.76;157620.00;1802140;79;21614;-70
2021/04/12 05:24:30;;;;;;;42.08;20.65;;;;;;;24.77;29.78;157658.47;1800225;79;21261;-72
2021/04/12 05:27:16;;;;;;;41.65;21.00;;;;;;;24.89;29.86;157689.00;1800124;79;21202;-71
2021/04/12 05:33:51;;;;;;;36.45;19.98;;;;;;;25.35;29.48;157812.47;1800180;79;21162;-71
2021/04/12 05:37:06;;;;;;;41.33;19.85;;;;;;;25.64;29.10;157889.50;1800941;79;21265;-71
2021/04/12 05:40:22;;;;;;;37.00;17.80;;;;;;;25.92;28.66;157963.94;1802063;79;21755;-71
2021/04/12 05:43:30;;;;;;;38.92;19.42;;;;;;;25.98;28.49;157979.84;1802057;79;21201;-73
2021/04/12 05:46:51;;;;;;;34.85;18.67;;;;;;;26.23;28.35;158047.56;1802048;79;21276;-72
2021/04/12 05:49:43;;;;;;;28.35;16.02;;;;;;;26.48;28.12;158112.75;1802175;79;22022;-71
2021/04/12 05:52:48;;;;;;;31.75;16.50;;;;;;;26.64;27.78;158157.91;1802002;79;21245;-71
2021/04/12 05:55:44;;;;;;;31.30;15.20;;;;;;;26.82;27.57;158204.41;1801947;79;22149;-71
2021/04/12 05:58:53;;;;;;;24.00;13.38;;;;;;;27.19;27.17;158304.19;1802186;79;21335;-71
2021/04/12 06:01:51;;;;;;;29.00;15.05;;;;;;;27.48;26.68;158379.97;1786684;79;21206;-71
2021/04/12 06:04:46;;;;;;;28.62;14.75;;;;;;;27.61;26.68;158415.86;1802171;79;21618;-71
2021/04/12 06:08:07;;;;;;;28.50;14.58;;;;;;;27.90;26.70;158494.38;1736352;81;21219;-70
2021/04/12 06:11:19;;;;;;;26.37;14.10;;;;;;;28.21;26.46;158575.53;1751515;82;21239;-71
2021/04/12 06:14:17;;;;;;;26.75;13.20;;;;;;;28.63;26.17;158688.69;1751323;82;21597;-71
2021/04/12 06:17:14;;;;;;;29.95;14.53;;;;;;;28.81;25.81;158736.63;1766801;79;21189;-70
2021/04/12 06:23:48;;;;;;;23.92;12.55;;;;;;;29.32;25.37;158873.75;1763715;81;21177;-71
2021/04/12 06:26:43;;;;;;;22.37;11.50;;;;;;;29.46;24.99;158912.41;1764632;80;21262;-71
2021/04/12 06:29:52;;;;;;;22.75;11.55;;;;;;;29.63;24.70;158956.34;1794076;80;21368;-71
2021/04/12 06:32:50;;;;;;;26.40;12.60;;;;;;;29.83;24.60;159009.66;1794208;80;21767;-71
2021/04/12 06:39:44;;;;;;;27.17;13.00;;;;;;;30.08;24.23;159077.64;1775892;80;21134;-71
2021/04/12 06:42:57;;;;;;;20.48;11.15;;;;;;;30.00;24.18;159056.34;1778009;80;21190;-71
2021/04/12 06:46:12;;;;;;;19.17;10.35;;;;;;;29.96;24.07;159044.36;1780473;80;21237;-72
2021/04/12 06:49:23;;;;;;;19.87;11.00;;;;;;;30.12;23.79;159088.31;1791381;80;21439;-71
2021/04/12 06:52:30;;;;;;;15.93;9.30;;;;;;;30.22;23.89;159113.59;1734169;82;21750;-72
2021/04/12 06:55:24;;;;;;;19.90;10.35;;;;;;;30.42;23.73;159169.61;1749404;80;21213;-72
2021/04/12 06:58:43;;;;;;;15.80;8.95;;;;;;;30.53;23.63;159198.97;1791465;80;21380;-72
2021/04/12 07:05:33;;;;;;;18.65;8.13;;;;;;;30.92;23.46;159301.59;1775731;81;21190;-71
2021/04/12 07:08:30;;;;;;;13.83;7.45;;;;;;;31.18;23.00;159372.30;1775693;81;21340;-71
2021/04/12 07:11:53;;;;;;;14.35;8.13;;;;;;;31.30;22.73;159405.66;1777861;80;21201;-69
2021/04/12 07:14:54;;;;;;;11.38;7.45;;;;;;;31.43;22.69;159438.97;1776372;80;21210;-71
2021/04/12 07:18:04;;;;;;;13.60;7.33;;;;;;;31.66;22.11;159500.37;1778334;80;21345;-72
2021/04/12 07:21:05;;;;;;;10.90;6.47;;;;;;;31.85;21.99;159552.41;1759971;80;21206;-72
2021/04/12 07:24:16;;;;;;;12.25;6.80;;;;;;;32.01;21.70;159595.06;1746580;80;21453;-72
2021/04/12 07:27:20;;;;;;;12.93;6.35;;;;;;;32.21;21.47;159648.53;1763586;81;21261;-70
2021/04/12 07:30:40;;;;;;;10.28;6.42;;;;;;;32.33;21.41;159681.86;1757353;80;21230;-70
2021/04/12 07:37:33;;;;;;;10.82;6.20;;;;;;;32.47;21.65;159719.25;1761902;81;21999;-71
2021/04/12 07:41:00;;;;;;;9.73;5.62;;;;;;;32.61;20.99;159756.67;1761880;81;21195;-71
2021/04/12 07:44:06;;;;;;;8.73;5.10;;;;;;;32.75;21.20;159792.69;1770120;80;22034;-71
2021/04/12 07:46:55;;;;;;;8.43;5.10;;;;;;;32.90;20.83;159834.06;1779490;80;21265;-72
2021/04/12 07:49:48;;;;;;;8.40;4.87;;;;;;;32.98;20.83;159855.47;1774709;81;21599;-72
2021/04/12 07:53:03;;;;;;;7.95;5.08;;;;;;;33.19;20.51;159911.58;1774939;81;21372;-70
2021/04/12 07:56:08;;;;;;;8.10;4.65;;;;;;;33.26;20.48;159930.25;1773501;81;21257;-70
2021/04/12 07:59:04;;;;;;;7.37;4.30;;;;;;;33.44;20.37;159979.67;1775141;81;21340;-71
2021/04/12 08:02:30;;;;;;;10.23;5.17;;;;;;;33.63;20.20;160029.14;1775416;81;21387;-71
2021/04/12 08:05:36;;;;;;;9.40;4.17;;;;;;;33.86;20.26;160091.91;1760166;81;21194;-71
2021/04/12 08:11:53;;;;;;;8.25;4.80;;;;;;;33.78;19.82;160069.23;1776957;80;21147;-72
2021/04/12 08:15:15;;;;;;;8.90;4.65;;;;;;;33.37;20.09;159959.62;1775462;81;21410;-71
2021/04/12 08:18:25;;;;;;;7.05;4.35;;;;;;;32.86;20.27;159823.42;1737496;80;21210;-71
2021/04/12 08:21:34;;;;;;;9.80;5.20;;;;;;;32.86;20.27;159823.42;1748491;80;21344;-71
2021/04/12 08:24:26;;;;;;;23.30;12.95;;;;;;;32.99;20.47;159858.09;1775236;81;21501;-71
2021/04/12 08:27:42;;;;;;;30.50;14.60;;;;;;;33.13;20.56;159894.22;1775130;81;21337;-71
2021/04/12 08:30:50;;;;;;;14.40;6.10;;;;;;;33.27;20.47;159934.25;1778471;79;21333;-71
2021/04/12 08:33:44;;;;;;;8.63;5.03;;;;;;;33.40;20.23;159968.97;1783103;80;21263;-71
2021/04/12 08:36:40;;;;;;;9.25;6.00;;;;;;;33.40;20.34;159967.66;1783173;80;21212;-71
2021/04/12 08:43:24;;;;;;;9.40;4.25;;;;;;;33.46;20.66;159985.02;1783193;80;21149;-71
2021/04/12 08:46:38;;;;;;;11.57;6.90;;;;;;;33.62;20.54;160026.47;1783367;80;21184;-71
2021/04/12 08:49:40;;;;;;;8.90;5.30;;;;;;;33.56;20.67;160011.72;1783201;80;21424;-71
2021/04/12 08:52:29;;;;;;;9.03;5.58;;;;;;;33.43;20.65;159977.00;1782416;80;22163;-71
2021/04/12 08:55:32;;;;;;;10.75;5.72;;;;;;;33.36;20.88;159956.95;1782590;80;21339;-71
2021/04/12 08:58:43;;;;;;;9.20;5.87;;;;;;;33.16;21.37;159903.56;1782780;80;21921;-72
2021/04/12 09:01:36;;;;;;;11.63;6.92;;;;;;;32.94;22.03;159843.41;1751988;81;21212;-71
2021/04/12 09:04:36;;;;;;;11.12;6.97;;;;;;;32.97;22.46;159852.80;1751814;82;21208;-70
2021/04/12 09:07:45;;;;;;;16.50;7.45;;;;;;;33.01;22.73;159863.44;1750137;82;21248;-70
2021/04/12 09:14:33;;;;;;;10.98;5.78;;;;;;;33.62;22.57;160026.47;1781375;80;21291;-70
2021/04/12 09:17:28;;;;;;;11.60;5.75;;;;;;;33.94;22.40;160113.31;1780988;80;21973;-69
2021/04/12 09:20:39;;;;;;;10.82;5.62;;;;;;;34.27;22.33;160201.55;1780889;80;21244;-70
2021/04/12 09:23:31;;;;;;;10.08;6.72;;;;;;;34.69;22.07;160315.20;1781407;80;22073;-72
2021/04/12 09:26:24;;;;;;;8.65;6.08;;;;;;;35.32;21.89;160485.03;1783229;80;21463;-72
2021/04/12 09:29:29;;;;;;;11.00;6.12;;;;;;;35.80;21.39;160612.13;1783096;80;21185;-72
2021/04/12 09:32:41;;;;;;;11.00;5.28;;;;;;;35.66;20.61;160576.03;1776309;79;21222;-72
2021/04/12 09:35:50;;;;;;;8.78;5.35;;;;;;;35.10;20.96;160424.84;1796697;80;21913;-71
2021/04/12 09:42:36;;;;;;;6.37;4.00;;;;;;;34.14;20.89;160165.48;1775162;81;22128;-72
2021/04/12 09:45:40;;;;;;;9.68;4.78;;;;;;;33.86;21.88;160091.91;1747042;80;21268;-72
2021/04/12 09:48:53;;;;;;;7.53;4.55;;;;;;;33.77;22.76;160067.88;1775161;81;21352;-72
2021/04/12 09:52:10;;;;;;;13.95;6.92;;;;;;;33.64;23.04;160033.13;1794599;79;21257;-72
2021/04/12 09:55:11;;;;;;;13.08;6.33;;;;;;;33.70;23.62;160049.19;1765524;80;21995;-72
2021/04/12 09:58:13;;;;;;;9.35;5.22;;;;;;;33.90;23.41;160101.30;1796764;80;22176;-72
2021/04/12 10:01:08;;;;;;;8.55;5.62;;;;;;;34.19;23.44;160180.19;1775577;81;21323;-72
2021/04/12 10:03:54;;;;;;;10.58;5.47;;;;;;;34.37;23.20;160229.63;1754191;81;21516;-72
2021/04/12 10:07:06;;;;;;;11.25;5.83;;;;;;;34.31;22.87;160213.56;1775525;81;22165;-72
2021/04/12 10:10:00;;;;;;;10.20;4.95;;;;;;;34.19;22.82;160181.48;1774477;80;21182;-72
2021/04/12 10:13:19;;;;;;;8.85;5.30;;;;;;;34.16;22.84;160172.14;1774757;81;21218;-72
2021/04/12 10:16:21;;;;;;;11.97;5.42;;;;;;;34.09;22.94;160152.09;1774936;81;21207;-72
2021/04/12 10:23:01;;;;;;;9.65;5.30;;;;;;;33.83;23.48;160082.56;1784834;80;21280;-70
2021/04/12 10:25:38;;;;;;;11.40;4.95;;;;;;;33.65;24.07;160034.50;1794734;80;21433;-70
2021/04/12 10:28:23;;;;;;;8.83;5.10;;;;;;;33.78;24.16;160069.23;1781879;80;21205;-71
2021/04/12 10:31:03;;;;;;;6.05;4.30;;;;;;;33.73;24.27;160057.22;1756566;80;21493;-71
2021/04/12 10:33:52;;;;;;;9.10;5.80;;;;;;;33.66;24.33;160038.48;1762776;81;21214;-72
2021/04/12 10:36:31;;;;;;;11.10;6.65;;;;;;;33.59;24.58;160019.75;1760930;81;21356;-71
2021/04/12 10:39:13;;;;;;;8.95;5.90;;;;;;;33.53;24.89;160002.39;1760905;81;21947;-71
2021/04/12 10:41:57;;;;;;;11.00;6.65;;;;;;;33.45;25.22;159980.98;1765129;79;21451;-71
2021/04/12 10:44:45;;;;;;;10.18;6.75;;;;;;;33.34;25.79;159951.61;1764550;81;21254;-69
2021/04/12 10:51:20;;;;;;;13.60;8.05;;;;;;;32.94;26.76;159843.41;1766525;81;21165;-73
2021/04/12 10:54:04;;;;;;;12.98;7.75;;;;;;;32.72;27.51;159784.67;1768813;80;21453;-70
2021/04/12 10:56:45;;;;;;;10.10;7.65;;;;;;;32.52;27.95;159731.25;1752769;81;21455;-70
2021/04/12 10:59:49;;;;;;;15.75;8.83;;;;;;;32.37;28.36;159692.56;1766765;81;21472;-70
2021/04/12 11:02:59;;;;;;;11.12;7.60;;;;;;;32.22;28.87;159651.20;1745866;80;22102;-70
2021/04/12 11:05:32;;;;;;;15.80;8.58;;;;;;;32.05;29.08;159605.75;1767250;81;21213;-70
2021/04/12 11:08:22;;;;;;;14.20;8.98;;;;;;;31.91;29.45;159567.08;1766242;81;22102;-69
2021/04/12 11:11:20;;;;;;;19.50;10.13;;;;;;;31.85;29.56;159552.41;1766759;81;21233;-70
2021/04/12 11:14:03;;;;;;;11.55;8.63;;;;;;;31.80;29.67;159539.05;1767072;80;21174;-70
2021/04/12 11:16:52;;;;;;;14.05;8.60;;;;;;;31.61;29.85;159487.02;1767027;81;21209;-70
2021/04/12 11:20:00;;;;;;;14.83;8.85;;;;;;;31.37;30.13;159422.94;1756929;81;21289;-70
2021/04/12 11:22:59;;;;;;;15.88;8.90;;;;;;;31.34;30.21;159414.98;1770785;80;22027;-72
2021/04/12 11:25:57;;;;;;;18.70;10.68;;;;;;;31.36;30.24;159421.64;1768899;81;21595;-72
2021/04/12 11:32:19;;;;;;;19.87;11.00;;;;;;;31.30;30.39;159404.30;1768580;81;21158;-72
2021/04/12 11:42:13;;;;;;;17.52;10.75;;;;;;;31.86;30.21;159553.72;1783418;80;21285;-72
2021/04/12 11:44:49;;;;;;;22.52;10.88;;;;;;;32.03;30.30;159600.41;1772941;80;21198;-72
2021/04/12 11:47:49;;;;;;;16.55;9.60;;;;;;;32.17;30.21;159636.53;1783426;80;21336;-72
2021/04/12 11:50:44;;;;;;;16.40;9.45;;;;;;;32.23;30.00;159652.50;1773882;80;21195;-70
2021/04/12 11:53:42;;;;;;;14.35;8.90;;;;;;;32.15;29.99;159631.17;1781521;80;22045;-70
2021/04/12 11:56:38;;;;;;;14.47;8.85;;;;;;;32.20;29.94;159644.48;1781596;80;21189;-71
2021/04/12 11:59:34;;;;;;;13.80;7.50;;;;;;;32.29;29.80;159671.17;1763911;79;21292;-70
2021/04/12 12:02:46;;;;;;;11.78;7.42;;;;;;;32.34;29.11;159684.53;1781561;80;21190;-71
2021/04/12 12:05:49;;;;;;;12.63;8.45;;;;;;;32.26;29.23;159661.84;1781428;80;21195;-70
2021/04/12 12:08:25;;;;;;;13.62;9.40;;;;;;;32.14;29.08;159628.50;1781187;80;21260;-71
2021/04/12 12:11:20;;;;;;;13.83;8.50;;;;;;;31.99;29.15;159589.77;1781305;80;21260;-71
2021/04/12 12:14:12;;;;;;;13.43;8.43;;;;;;;31.91;29.27;159567.08;1766782;80;21221;-71
2021/04/12 12:16:44;;;;;;;11.40;8.65;;;;;;;31.84;29.42;159548.38;1781212;79;21210;-71
2021/04/12 12:19:25;;;;;;;14.83;8.45;;;;;;;31.84;29.57;159549.73;1780946;80;21475;-72
2021/04/12 12:22:36;;;;;;;13.83;8.48;;;;;;;31.73;29.54;159519.03;1782867;80;21352;-72
2021/04/12 12:25:16;;;;;;;15.30;8.80;;;;;;;31.65;29.70;159499.06;1782932;80;21370;-72
2021/04/12 12:28:04;;;;;;;14.87;9.78;;;;;;;31.66;29.71;159500.37;1783030;80;21590;-72
2021/04/12 12:30:56;;;;;;;16.40;9.05;;;;;;;31.48;29.67;159452.34;1782871;80;21844;-72
2021/04/12 12:33:48;;;;;;;15.90;9.58;;;;;;;31.38;29.85;159425.63;1774641;80;21197;-71
2021/04/12 12:36:34;;;;;;;28.23;12.23;;;;;;;31.43;29.88;159440.28;1775731;80;21741;-72
2021/04/12 12:39:39;;;;;;;22.70;12.07;;;;;;;31.44;30.04;159441.64;1789124;79;21217;-72
2021/04/12 12:42:25;;;;;;;47.50;18.27;;;;;;;31.35;30.01;159418.97;1783196;80;21309;-72
2021/04/12 12:45:03;;;;;;;29.02;16.02;;;;;;;31.33;30.09;159412.31;1772536;81;21375;-72
2021/04/12 12:47:35;;;;;;;20.70;11.78;;;;;;;31.30;30.04;159404.30;1774924;79;21374;-71
2021/04/12 12:50:22;;;;;;;18.80;10.88;;;;;;;31.29;30.00;159401.63;1762247;81;21312;-71
2021/04/12 12:52:58;;;;;;;16.12;10.05;;;;;;;31.26;29.91;159392.31;1775412;79;22138;-70
2021/04/12 12:55:34;;;;;;;17.20;10.75;;;;;;;31.23;30.01;159384.28;1774231;80;21198;-70
2021/04/12 13:01:44;;;;;;;14.70;9.08;;;;;;;31.49;29.99;159456.31;1775255;81;21658;-71
2021/04/12 13:04:20;;;;;;;14.68;9.55;;;;;;;31.61;29.92;159487.02;1762721;81;21240;-73
2021/04/12 13:10:38;;;;;;;20.43;11.15;;;;;;;31.59;29.47;159481.72;1761492;81;21165;-77
2021/04/12 13:13:27;;;;;;;15.28;10.35;;;;;;;31.51;29.63;159460.30;1764973;81;21388;-81
2021/04/12 13:16:14;;;;;;;18.35;10.23;;;;;;;31.59;29.48;159481.72;1764983;81;21423;-72
2021/04/12 13:19:02;;;;;;;14.68;9.45;;;;;;;31.66;29.49;159500.37;1763015;81;22015;-72
2021/04/12 13:25:44;;;;;;;14.85;9.80;;;;;;;31.74;29.24;159521.70;1794333;80;21570;-71
2021/04/12 13:32:01;;;;;;;12.73;8.28;;;;;;;31.71;29.12;159513.73;1705484;81;21331;-75
2021/04/12 13:34:47;;;;;;;15.18;9.30;;;;;;;31.81;28.93;159541.72;1765822;80;21198;-72
2021/04/12 13:37:54;;;;;;;18.10;11.15;;;;;;;31.80;29.01;159537.73;1758895;81;21209;-72
2021/04/12 13:40:29;;;;;;;18.65;11.68;;;;;;;31.89;29.10;159561.73;1788554;79;21274;-73
2021/04/12 13:43:06;;;;;;;23.52;10.63;;;;;;;32.05;28.78;159604.44;1792284;79;22157;-75
2021/04/12 13:45:54;;;;;;;16.12;10.32;;;;;;;32.09;28.68;159616.50;1781839;80;21859;-73
2021/04/12 13:48:40;;;;;;;18.23;10.93;;;;;;;32.15;28.58;159631.17;1775921;79;21214;-71
2021/04/12 13:51:34;;;;;;;16.17;9.88;;;;;;;32.12;28.60;159624.47;1759656;79;22045;-76
2021/04/12 13:54:30;;;;;;;18.87;10.93;;;;;;;32.11;28.65;159621.84;1766469;80;21911;-72
2021/04/12 13:57:29;;;;;;;20.30;11.88;;;;;;;32.21;28.70;159647.16;1765326;80;21210;-74
2021/04/12 14:00:26;;;;;;;18.70;9.88;;;;;;;32.40;28.63;159699.22;1759884;80;21774;-74
2021/04/12 14:03:03;;;;;;;19.30;10.43;;;;;;;32.68;28.30;159775.34;1738904;81;21211;-74
2021/04/12 14:09:30;;;;;;;17.02;10.15;;;;;;;32.84;28.20;159816.72;1760171;81;21169;-74
2021/04/12 14:12:16;;;;;;;14.63;9.18;;;;;;;32.89;27.78;159831.39;1759899;81;21213;-74
2021/04/12 14:15:09;;;;;;;16.57;10.58;;;;;;;32.82;27.90;159812.72;1760023;81;21340;-74
2021/04/12 14:17:49;;;;;;;17.02;9.55;;;;;;;32.69;28.19;159776.70;1760057;81;21241;-75
2021/04/12 14:20:36;;;;;;;16.55;10.40;;;;;;;32.64;28.21;159764.64;1760317;81;21253;-73
2021/04/12 14:23:22;;;;;;;17.45;10.78;;;;;;;32.69;28.07;159778.02;1760033;81;21210;-72
2021/04/12 14:26:08;;;;;;;16.73;10.08;;;;;;;32.50;28.19;159727.25;1760271;81;21451;-72
2021/04/12 14:28:48;;;;;;;18.62;10.90;;;;;;;32.44;28.26;159709.91;1760108;81;21714;-72
2021/04/12 14:31:33;;;;;;;21.85;12.70;;;;;;;32.31;28.29;159675.20;1760064;81;21411;-74
2021/04/12 14:34:10;;;;;;;20.25;12.53;;;;;;;32.09;28.51;159615.14;1760304;81;21464;-76
2021/04/12 14:36:43;;;;;;;17.12;11.05;;;;;;;31.97;28.44;159583.06;1760213;81;21276;-76
2021/04/12 14:39:26;;;;;;;19.37;10.75;;;;;;;31.81;28.51;159541.72;1760232;81;21768;-71
2021/04/12 14:42:15;;;;;;;16.27;10.28;;;;;;;31.78;28.42;159532.39;1758372;81;21466;-72